createdAt,value
2019-05-13T00:00:23.586Z,56.68
2019-05-13T00:03:00.378Z,57.06
2019-05-13T00:05:30.992Z,57.78
2019-05-13T00:08:07.506Z,57.56
2019-05-13T00:10:38.138Z,58.63
2019-05-13T00:13:08.735Z,57.15
2019-05-13T00:15:39.301Z,58.20
2019-05-13T00:18:09.949Z,58.11
2019-05-13T00:20:40.594Z,58.01
2019-05-13T00:23:11.181Z,58.38
2019-05-13T00:25:44.206Z,57.53
2019-05-13T00:28:19.493Z,58.29
2019-05-13T00:30:50.966Z,57.73
2019-05-13T00:33:27.446Z,58.59
2019-05-13T00:35:58.165Z,58.86
2019-05-13T00:38:28.764Z,59.60
2019-05-13T00:41:00.348Z,59.47
2019-05-13T00:43:33.587Z,59.92
2019-05-13T00:46:03.879Z,60.38
2019-05-13T00:48:35.753Z,60.70
2019-05-13T00:51:06.438Z,61.01
2019-05-13T00:53:37.016Z,60.91
2019-05-13T00:56:07.596Z,61.05
2019-05-13T00:58:40.246Z,60.12
2019-05-13T01:01:10.896Z,60.47
2019-05-13T01:03:44.024Z,61.05
2019-05-13T01:06:13.791Z,61.02
2019-05-13T01:08:44.392Z,61.05
2019-05-13T01:11:15.053Z,61.46
2019-05-13T01:13:45.767Z,61.44
2019-05-13T01:16:16.622Z,61.44
2019-05-13T01:18:47.209Z,62.34
2019-05-13T01:21:17.772Z,61.31
2019-05-13T01:23:48.385Z,61.08
2019-05-13T01:26:18.969Z,60.91
2019-05-13T01:28:53.677Z,60.81
2019-05-13T01:31:24.397Z,61.58
2019-05-13T01:33:55.128Z,60.59
2019-05-13T01:36:25.840Z,60.82
2019-05-13T01:38:56.426Z,61.12
2019-05-13T01:41:30.244Z,61.22
2019-05-13T01:44:04.053Z,61.88
2019-05-13T01:46:37.457Z,61.80
2019-05-13T01:49:09.085Z,61.61
2019-05-13T01:51:40.742Z,61.62
2019-05-13T01:54:14.304Z,61.71
2019-05-13T01:56:45.094Z,62.10
2019-05-13T01:59:15.599Z,61.98
2019-05-13T02:01:49.522Z,61.98
2019-05-13T02:04:20.120Z,61.99
2019-05-13T02:06:50.883Z,62.08
2019-05-13T02:09:29.051Z,62.29
2019-05-13T02:12:01.361Z,62.71
2019-05-13T02:14:39.055Z,63.36
2019-05-13T02:17:14.600Z,63.23
2019-05-13T02:19:49.090Z,62.86
2019-05-13T02:22:25.380Z,62.79
2019-05-13T02:24:59.768Z,63.03
2019-05-13T02:27:32.031Z,63.08
2019-05-13T02:30:10.554Z,63.62
2019-05-13T02:32:43.101Z,63.77
2019-05-13T02:35:15.498Z,64.22
2019-05-13T02:37:47.805Z,64.28
2019-05-13T02:40:22.634Z,64.89
2019-05-13T02:42:53.803Z,64.85
2019-05-13T02:45:25.553Z,64.48
2019-05-13T02:48:03.884Z,65.29
2019-05-13T02:50:36.182Z,64.89
2019-05-13T02:53:08.515Z,65.18
2019-05-13T02:55:43.723Z,65.36
2019-05-13T02:58:16.182Z,65.33
2019-05-13T03:00:48.530Z,64.83
2019-05-13T03:03:23.177Z,65.49
2019-05-13T03:05:54.546Z,64.92
2019-05-13T03:08:39.845Z,65.79
2019-05-13T03:10:58.122Z,66.07
2019-05-13T03:13:32.285Z,66.29
2019-05-13T03:16:13.402Z,66.50
2019-05-13T03:18:52.458Z,66.87
2019-05-13T03:21:24.030Z,66.99
2019-05-13T03:23:55.399Z,66.86
2019-05-13T03:26:33.808Z,66.83
2019-05-13T03:29:05.225Z,66.65
2019-05-13T03:31:36.505Z,66.56
2019-05-13T03:34:08.023Z,66.67
2019-05-13T03:36:45.121Z,66.52
2019-05-13T03:39:16.322Z,66.41
2019-05-13T03:41:46.223Z,66.77
2019-05-13T03:44:18.852Z,66.88
2019-05-13T03:46:53.135Z,67.05
2019-05-13T03:49:25.923Z,66.41
2019-05-13T03:51:57.822Z,67.13
2019-05-13T03:54:34.517Z,66.50
2019-05-13T03:57:05.599Z,67.13
2019-05-13T03:59:36.431Z,66.77
2019-05-13T04:02:07.377Z,67.23
2019-05-13T04:04:42.254Z,67.40
2019-05-13T04:07:12.939Z,67.08
2019-05-13T04:09:44.982Z,66.42
2019-05-13T04:12:15.824Z,66.95
2019-05-13T04:14:46.717Z,66.74
2019-05-13T04:17:17.367Z,66.56
2019-05-13T04:19:48.357Z,67.24
2019-05-13T04:22:23.072Z,67.33
2019-05-13T04:24:53.148Z,67.61
2019-05-13T04:27:23.925Z,67.01
2019-05-13T04:29:54.670Z,67.26
2019-05-13T04:32:28.683Z,67.16
2019-05-13T04:34:58.018Z,67.90
2019-05-13T04:37:28.684Z,67.35
2019-05-13T04:39:59.453Z,67.65
2019-05-13T04:42:33.131Z,67.69
2019-05-13T04:45:03.268Z,67.40
2019-05-13T04:47:34.453Z,66.59
2019-05-13T04:50:08.601Z,66.52
2019-05-13T04:52:45.104Z,66.65
2019-05-13T04:55:22.800Z,66.37
2019-05-13T04:57:53.938Z,66.22
2019-05-13T05:01:07.400Z,66.02
2019-05-13T05:03:45.717Z,66.58
2019-05-13T05:06:26.515Z,65.31
2019-05-13T05:10:13.242Z,65.55
2019-05-13T05:13:12.809Z,64.89
2019-05-13T05:16:13.922Z,65.09
2019-05-13T05:19:24.481Z,65.22
2019-05-13T05:22:13.469Z,65.06
2019-05-13T05:25:03.727Z,64.97
2019-05-13T05:28:11.314Z,65.93
2019-05-13T05:31:14.686Z,65.76
2019-05-13T05:34:21.970Z,65.01
2019-05-13T05:37:22.434Z,65.41
2019-05-13T05:39:55.404Z,65.17
2019-05-13T05:42:28.146Z,64.77
2019-05-13T05:45:02.757Z,65.53
2019-05-13T05:47:35.918Z,65.23
2019-05-13T05:50:06.680Z,64.95
2019-05-13T05:52:38.147Z,64.50
2019-05-13T05:55:11.247Z,65.03
2019-05-13T05:57:42.583Z,64.71
2019-05-13T06:00:13.577Z,64.88
2019-05-13T06:02:46.668Z,63.60
2019-05-13T06:05:21.342Z,63.75
2019-05-13T06:07:52.451Z,64.09
2019-05-13T06:10:27.365Z,64.04
2019-05-13T06:12:58.240Z,64.22
2019-05-13T06:15:31.455Z,63.64
2019-05-13T06:18:11.770Z,63.34
2019-05-13T06:20:48.176Z,63.92
2019-05-13T06:23:18.778Z,63.00
2019-05-13T06:25:49.493Z,63.55
2019-05-13T06:28:26.308Z,62.83
2019-05-13T06:30:57.078Z,62.93
2019-05-13T06:33:27.767Z,62.66
2019-05-13T06:36:04.189Z,62.49
2019-05-13T06:38:34.871Z,61.89
2019-05-13T06:41:11.429Z,62.09
2019-05-13T06:43:41.826Z,63.10
2019-05-13T06:46:17.679Z,60.67
2019-05-13T06:48:48.377Z,61.05
2019-05-13T06:51:18.972Z,60.15
2019-05-13T06:53:54.682Z,60.26
2019-05-13T06:56:25.335Z,59.30
2019-05-13T06:59:04.911Z,58.92
2019-05-13T07:01:35.558Z,58.28
2019-05-13T07:04:06.299Z,59.04
2019-05-13T07:06:37.459Z,57.89
2019-05-13T07:09:08.379Z,58.24
2019-05-13T07:11:45.838Z,58.70
2019-05-13T07:14:16.725Z,58.79
2019-05-13T07:16:47.487Z,59.25
2019-05-13T07:19:18.284Z,58.05
2019-05-13T07:21:49.008Z,57.65
2019-05-13T07:24:26.624Z,57.55
2019-05-13T07:27:04.413Z,57.22
2019-05-13T07:29:42.380Z,56.16
2019-05-13T07:32:13.963Z,56.75
2019-05-13T07:34:45.815Z,56.21
2019-05-13T07:37:16.599Z,54.98
2019-05-13T07:39:47.515Z,55.22
2019-05-13T07:42:18.369Z,55.34
2019-05-13T07:44:49.200Z,54.77
2019-05-13T07:47:22.017Z,54.73
2019-05-13T07:49:52.385Z,53.94
2019-05-13T07:52:24.299Z,55.85
2019-05-13T07:54:54.968Z,56.07
2019-05-13T07:57:26.852Z,54.75
2019-05-13T08:00:05.377Z,54.08
2019-05-13T08:02:36.184Z,53.67
2019-05-13T08:05:14.013Z,53.13
2019-05-13T08:07:44.929Z,53.15
2019-05-13T08:10:25.986Z,52.46
2019-05-13T08:12:56.864Z,52.19
2019-05-13T08:15:27.723Z,52.91
2019-05-13T08:18:01.985Z,49.33
2019-05-13T08:20:32.750Z,49.66
2019-05-13T08:23:03.696Z,49.75
2019-05-13T08:25:34.589Z,48.77
2019-05-13T08:28:06.481Z,47.51
2019-05-13T08:30:38.314Z,47.91
2019-05-13T08:33:12.593Z,47.94
2019-05-13T08:35:46.953Z,48.39
2019-05-13T08:38:24.159Z,47.92
2019-05-13T08:40:56.935Z,49.16
2019-05-13T08:43:31.667Z,48.44
2019-05-13T08:46:03.429Z,47.22
2019-05-13T08:48:35.104Z,47.92
2019-05-13T08:51:05.930Z,46.25
2019-05-13T08:53:36.855Z,45.70
2019-05-13T08:56:13.388Z,42.89
2019-05-13T08:58:44.142Z,43.30
2019-05-13T09:01:15.834Z,44.29
2019-05-13T09:03:53.685Z,41.59
2019-05-13T09:06:24.427Z,41.23
2019-05-13T09:08:56.539Z,41.17
2019-05-13T09:11:27.297Z,41.52
2019-05-13T09:13:58.074Z,41.98
2019-05-13T09:16:31.969Z,41.18
2019-05-13T09:19:03.754Z,41.70
2019-05-13T09:21:34.939Z,41.28
2019-05-13T09:24:20.821Z,41.11
2019-05-13T09:26:38.299Z,41.00
2019-05-13T09:29:11.883Z,41.63
2019-05-13T09:31:42.556Z,43.29
2019-05-13T09:34:14.394Z,41.57
2019-05-13T09:36:45.076Z,39.47
2019-05-13T09:39:15.831Z,40.71
2019-05-13T09:41:46.574Z,40.57
2019-05-13T09:44:17.427Z,40.58
2019-05-13T09:46:51.564Z,40.94
2019-05-13T09:49:23.679Z,40.19
2019-05-13T09:51:54.111Z,39.54
2019-05-13T09:54:24.766Z,38.31
2019-05-13T09:56:55.619Z,38.86
2019-05-13T09:59:26.300Z,38.83
2019-05-13T10:01:57.093Z,37.96
2019-05-13T10:04:27.930Z,37.35
2019-05-13T10:07:01.545Z,36.52
2019-05-13T10:09:32.605Z,35.53
2019-05-13T10:12:04.399Z,35.92
2019-05-13T10:14:35.093Z,37.65
2019-05-13T10:17:13.184Z,35.02
2019-05-13T10:19:47.128Z,35.96
2019-05-13T10:22:18.362Z,36.50
2019-05-13T10:24:53.256Z,36.96
2019-05-13T10:27:27.406Z,37.51
2019-05-13T10:29:59.399Z,38.31
2019-05-13T10:32:32.434Z,38.44
2019-05-13T10:35:03.617Z,38.37
2019-05-13T10:37:36.463Z,37.59
2019-05-13T10:40:07.378Z,37.08
2019-05-13T10:42:38.343Z,35.63
2019-05-13T10:45:09.174Z,36.63
2019-05-13T10:47:43.700Z,36.82
2019-05-13T10:50:16.576Z,36.79
2019-05-13T10:52:48.431Z,37.63
2019-05-13T10:55:27.351Z,36.58
2019-05-13T10:58:03.904Z,37.17
2019-05-13T11:00:43.779Z,36.45
2019-05-13T11:03:25.699Z,36.16
2019-05-13T11:05:56.487Z,34.39
2019-05-13T11:08:28.281Z,33.12
2019-05-13T11:11:02.259Z,31.01
2019-05-13T11:13:50.603Z,32.01
2019-05-13T11:16:06.675Z,30.21
2019-05-13T11:18:41.594Z,30.20
2019-05-13T11:21:16.080Z,30.14
2019-05-13T11:23:55.924Z,29.26
2019-05-13T11:26:28.680Z,29.83
2019-05-13T11:29:02.811Z,31.60
2019-05-13T11:31:33.772Z,30.48
2019-05-13T11:34:04.659Z,29.79
2019-05-13T11:36:37.180Z,29.73
2019-05-13T11:39:08.956Z,28.71
2019-05-13T11:41:43.804Z,29.11
2019-05-13T11:44:16.908Z,28.12
2019-05-13T11:46:47.132Z,28.62
2019-05-13T11:49:17.860Z,28.32
2019-05-13T11:51:48.708Z,28.72
2019-05-13T11:54:26.430Z,28.78
2019-05-13T11:57:07.231Z,28.30
2019-05-13T11:59:37.934Z,28.41
2019-05-13T12:02:14.641Z,27.96
2019-05-13T12:04:45.350Z,27.99
2019-05-13T12:07:16.122Z,28.61
2019-05-13T12:09:47.965Z,26.66
2019-05-13T12:12:18.801Z,29.28
2019-05-13T12:15:20.493Z,28.37
2019-05-13T12:17:22.670Z,28.74
2019-05-13T12:19:55.572Z,27.66
2019-05-13T12:22:30.011Z,27.41
2019-05-13T12:25:02.053Z,25.38
2019-05-13T12:27:33.108Z,26.90
2019-05-13T12:30:13.335Z,25.47
2019-05-13T12:32:44.042Z,25.71
2019-05-13T12:35:14.828Z,26.27
2019-05-13T12:37:48.999Z,24.73
2019-05-13T12:40:22.774Z,24.49
2019-05-13T12:42:58.223Z,25.69
2019-05-13T12:45:29.140Z,25.52
2019-05-13T12:48:14.009Z,24.73
2019-05-13T12:50:43.669Z,26.62
2019-05-13T12:53:15.475Z,26.77
2019-05-13T12:55:53.788Z,25.71
2019-05-13T12:58:25.784Z,27.01
2019-05-13T13:00:56.615Z,26.67
2019-05-13T13:03:28.410Z,26.32
2019-05-13T13:08:47.409Z,25.60
2019-05-13T13:11:11.992Z,25.34
2019-05-13T13:16:16.319Z,24.64
2019-05-13T13:18:47.035Z,25.37
2019-05-13T13:21:17.830Z,24.42
2019-05-13T13:23:50.738Z,24.52
2019-05-13T13:26:25.451Z,23.94
2019-05-13T13:28:57.259Z,23.78
2019-05-13T13:31:28.107Z,24.29
2019-05-13T13:34:10.951Z,23.88
2019-05-13T13:36:33.639Z,24.77
2019-05-13T13:39:08.346Z,24.78
2019-05-13T13:41:39.225Z,25.11
2019-05-13T13:44:14.392Z,25.28
2019-05-13T13:46:49.310Z,24.00
2019-05-13T13:49:23.567Z,23.13
2019-05-13T13:51:54.438Z,23.33
2019-05-13T13:54:33.551Z,23.98
2019-05-13T13:57:03.139Z,23.73
2019-05-13T14:00:13.742Z,23.14
2019-05-13T14:02:13.470Z,23.28
2019-05-13T14:04:43.365Z,23.71
2019-05-13T14:06:50.057Z,24.87
2019-05-13T14:07:26.540Z,23.94
2019-05-13T14:09:48.084Z,23.32
2019-05-13T14:12:37.420Z,24.10
2019-05-13T14:15:10.043Z,23.16
2019-05-13T14:17:41.560Z,23.43
2019-05-13T14:20:16.817Z,22.93
2019-05-13T14:22:47.723Z,23.11
2019-05-13T14:25:18.528Z,23.35
2019-05-13T14:27:52.594Z,23.35
2019-05-13T14:30:26.266Z,23.51
2019-05-13T14:32:58.044Z,23.52
2019-05-13T14:35:28.797Z,22.87
2019-05-13T14:38:21.888Z,22.56
2019-05-13T14:40:54.678Z,22.97
2019-05-13T14:43:26.401Z,23.78
2019-05-13T14:45:57.194Z,23.52
2019-05-13T14:48:32.542Z,23.29
2019-05-13T14:51:07.677Z,21.98
2019-05-13T14:53:41.762Z,23.13
2019-05-13T14:56:23.912Z,23.29
2019-05-13T14:58:44.827Z,23.48
2019-05-13T15:01:22.287Z,21.67
2019-05-13T15:03:48.207Z,21.74
2019-05-13T15:06:21.562Z,22.01
2019-05-13T15:09:01.757Z,22.25
2019-05-13T15:11:33.560Z,21.84
2019-05-13T15:14:11.848Z,22.25
2019-05-13T15:16:42.725Z,21.63
2019-05-13T15:19:13.514Z,22.13
2019-05-13T15:21:47.728Z,22.31
2019-05-13T15:24:21.317Z,22.45
2019-05-13T15:26:59.871Z,22.78
2019-05-13T15:29:31.358Z,23.17
2019-05-13T15:32:02.351Z,23.22
2019-05-13T15:34:38.458Z,23.31
2019-05-13T15:37:11.250Z,22.77
2019-05-13T15:39:43.037Z,23.53
2019-05-13T15:42:31.900Z,24.52
2019-05-13T15:45:02.973Z,23.14
2019-05-13T15:47:51.593Z,24.42
2019-05-13T15:50:23.274Z,23.99
2019-05-13T15:52:53.935Z,24.21
2019-05-13T15:55:28.010Z,23.62
2019-05-13T15:57:58.800Z,22.94
2019-05-13T16:00:29.608Z,23.56
2019-05-13T16:03:02.283Z,23.73
2019-05-13T16:05:33.002Z,23.64
2019-05-13T16:08:04.226Z,24.43
2019-05-13T16:10:34.979Z,24.26
2019-05-13T16:13:05.571Z,24.27
2019-05-13T16:15:36.329Z,23.41
2019-05-13T16:18:07.997Z,24.28
2019-05-13T16:20:42.598Z,22.29
2019-05-13T16:23:13.332Z,22.47
2019-05-13T16:25:44.293Z,22.57
2019-05-13T16:28:14.943Z,22.52
2019-05-13T16:30:51.544Z,23.10
2019-05-13T16:33:21.909Z,22.69
2019-05-13T16:35:52.672Z,23.40
2019-05-13T16:38:23.473Z,22.81
2019-05-13T16:40:54.340Z,23.04
2019-05-13T16:43:25.997Z,23.60
2019-05-13T16:45:57.016Z,23.52
2019-05-13T16:48:28.028Z,23.49
2019-05-13T16:51:00.690Z,23.14
2019-05-13T16:53:31.746Z,23.99
2019-05-13T16:56:06.239Z,24.31
2019-05-13T16:58:38.885Z,23.96
2019-05-13T17:01:11.811Z,23.59
2019-05-13T17:03:44.086Z,23.68
2019-05-13T17:06:14.782Z,23.63
2019-05-13T17:08:45.708Z,23.97
2019-05-13T17:11:16.408Z,24.57
2019-05-13T17:13:53.953Z,24.06
2019-05-13T17:16:34.388Z,24.68
2019-05-13T17:19:05.182Z,25.32
2019-05-13T17:21:36.217Z,25.00
2019-05-13T17:24:12.399Z,25.32
2019-05-13T17:26:42.478Z,25.88
2019-05-13T17:29:14.078Z,25.63
2019-05-13T17:31:44.810Z,25.65
2019-05-13T17:34:21.531Z,26.16
2019-05-13T17:36:52.207Z,25.75
2019-05-13T17:39:28.999Z,26.18
2019-05-13T17:42:01.438Z,26.59
2019-05-13T17:44:33.025Z,25.97
2019-05-13T17:47:04.837Z,26.83
2019-05-13T17:49:41.747Z,26.57
2019-05-13T17:52:11.975Z,26.07
2019-05-13T17:54:42.927Z,26.32
2019-05-13T17:57:14.761Z,27.08
2019-05-13T17:59:45.380Z,26.77
2019-05-13T18:02:21.138Z,27.28
2019-05-13T18:05:02.038Z,26.86
2019-05-13T18:07:32.957Z,27.56
2019-05-13T18:10:03.630Z,27.67
2019-05-13T18:12:41.789Z,27.59
2019-05-13T18:15:13.694Z,27.42
2019-05-13T18:17:44.390Z,27.37
2019-05-13T18:20:15.065Z,27.46
2019-05-13T18:22:48.066Z,28.71
2019-05-13T18:25:18.795Z,27.72
2019-05-13T18:27:52.157Z,28.54
2019-05-13T18:30:23.140Z,28.79
2019-05-13T18:32:57.517Z,28.59
2019-05-13T18:35:31.754Z,28.27
2019-05-13T18:38:04.537Z,28.42
2019-05-13T18:40:35.345Z,27.98
2019-05-13T18:43:06.976Z,27.69
2019-05-13T18:45:37.587Z,28.40
2019-05-13T18:48:12.374Z,27.87
2019-05-13T18:50:43.157Z,27.95
2019-05-13T18:53:14.005Z,27.68
2019-05-13T18:55:44.632Z,28.37
2019-05-13T18:58:23.110Z,28.63
2019-05-13T19:01:08.124Z,28.22
2019-05-13T19:03:41.502Z,29.68
2019-05-13T19:06:12.240Z,29.71
2019-05-13T19:08:47.416Z,29.74
2019-05-13T19:11:18.340Z,29.33
2019-05-13T19:13:49.056Z,30.10
2019-05-13T19:16:21.418Z,30.20
2019-05-13T19:18:54.365Z,30.69
2019-05-13T19:21:25.058Z,30.05
2019-05-13T19:23:55.887Z,30.39
2019-05-13T19:26:28.552Z,31.07
2019-05-13T19:28:59.158Z,31.85
2019-05-13T19:31:29.843Z,31.83
2019-05-13T19:34:01.462Z,31.29
2019-05-13T19:36:33.226Z,31.75
2019-05-13T19:39:06.335Z,31.68
2019-05-13T19:41:37.048Z,32.33
2019-05-13T19:44:08.834Z,32.91
2019-05-13T19:46:42.134Z,32.55
2019-05-13T19:49:27.373Z,31.72
2019-05-13T19:51:44.984Z,31.89
2019-05-13T19:54:15.710Z,31.84
2019-05-13T19:56:53.129Z,33.80
2019-05-13T19:59:27.095Z,33.53
2019-05-13T20:02:09.187Z,34.25
2019-05-13T20:04:41.389Z,32.53
2019-05-13T20:07:12.723Z,34.13
2019-05-13T20:09:51.829Z,33.81
2019-05-13T20:12:23.162Z,33.91
2019-05-13T20:15:01.235Z,33.33
2019-05-13T20:17:33.111Z,33.00
2019-05-13T20:20:07.789Z,33.21
2019-05-13T20:22:42.242Z,33.07
2019-05-13T20:25:13.335Z,33.04
2019-05-13T20:27:45.455Z,33.81
2019-05-13T20:30:18.013Z,33.16
2019-05-13T20:32:48.774Z,33.52
2019-05-13T20:35:23.503Z,33.34
2019-05-13T20:37:55.229Z,34.12
2019-05-13T20:40:26.992Z,33.38
2019-05-13T20:43:01.805Z,33.43
2019-05-13T20:45:32.548Z,34.10
2019-05-13T20:48:04.019Z,33.21
2019-05-13T20:50:34.727Z,33.36
2019-05-13T20:53:05.652Z,33.84
2019-05-13T20:55:36.825Z,34.09
2019-05-13T20:58:07.743Z,34.16
2019-05-13T21:00:38.717Z,34.09
2019-05-13T21:03:11.555Z,33.99
2019-05-13T21:05:41.932Z,35.76
2019-05-13T21:08:12.761Z,34.15
2019-05-13T21:10:43.448Z,34.38
2019-05-13T21:13:14.216Z,35.53
2019-05-13T21:15:45.712Z,35.29
2019-05-13T21:18:32.206Z,34.91
2019-05-13T21:21:02.927Z,35.45
2019-05-13T21:23:33.605Z,35.42
2019-05-13T21:26:04.691Z,35.07
2019-05-13T21:28:35.269Z,35.99
2019-05-13T21:31:06.107Z,35.93
2019-05-13T21:33:36.799Z,36.38
2019-05-13T21:36:07.733Z,36.29
2019-05-13T21:38:38.704Z,37.13
2019-05-13T21:41:11.657Z,36.72
2019-05-13T21:43:43.900Z,36.71
2019-05-13T21:46:15.321Z,37.51
2019-05-13T21:48:47.024Z,37.15
2019-05-13T21:51:31.485Z,37.20
2019-05-13T21:54:02.406Z,37.76
2019-05-13T21:56:32.997Z,38.28
2019-05-13T21:59:04.434Z,38.59
2019-05-13T22:01:35.904Z,39.24
2019-05-13T22:04:06.857Z,38.83
2019-05-13T22:06:43.994Z,39.28
2019-05-13T22:09:14.815Z,39.26
2019-05-13T22:11:52.683Z,39.55
2019-05-13T22:14:23.450Z,40.39
2019-05-13T22:16:56.493Z,39.91
2019-05-13T22:19:26.524Z,39.51
2019-05-13T22:21:57.177Z,39.87
2019-05-13T22:24:27.739Z,41.14
2019-05-13T22:27:03.900Z,41.11
2019-05-13T22:29:42.837Z,40.71
2019-05-13T22:32:13.553Z,41.58
2019-05-13T22:34:44.149Z,41.99
2019-05-13T22:37:14.970Z,42.00
2019-05-13T22:40:06.385Z,42.17
2019-05-13T22:42:37.229Z,42.64
2019-05-13T22:45:07.993Z,42.35
2019-05-13T22:47:38.683Z,41.99
2019-05-13T22:50:11.489Z,42.64
2019-05-13T22:52:42.830Z,42.69
2019-05-13T22:55:18.714Z,43.25
2019-05-13T22:57:51.460Z,43.95
2019-05-13T23:00:22.487Z,43.59
2019-05-13T23:02:53.148Z,43.49
2019-05-13T23:05:23.832Z,43.49
2019-05-13T23:08:02.043Z,44.19
2019-05-13T23:10:32.252Z,43.75
2019-05-13T23:13:03.611Z,44.49
2019-05-13T23:15:34.468Z,44.35
2019-05-13T23:18:05.190Z,44.55
2019-05-13T23:20:41.734Z,44.75
2019-05-13T23:23:12.484Z,45.33
2019-05-13T23:25:47.459Z,44.72
2019-05-13T23:28:18.582Z,45.12
2019-05-13T23:30:51.223Z,45.38
2019-05-13T23:33:31.370Z,46.03
2019-05-13T23:36:02.370Z,45.84
2019-05-13T23:38:33.315Z,45.70
2019-05-13T23:41:04.940Z,46.06
2019-05-13T23:43:35.775Z,46.80
2019-05-13T23:46:06.363Z,46.40
2019-05-13T23:48:37.380Z,47.02
2019-05-13T23:51:14.072Z,46.74
2019-05-13T23:53:46.301Z,47.64
2019-05-13T23:56:17.171Z,47.32
2019-05-13T23:58:47.892Z,47.35
